createdAt,value
2023-05-17T00:00:58.926Z,0.00
2023-05-17T00:01:58.934Z,0.00
2023-05-17T00:02:58.973Z,0.00
2023-05-17T00:03:58.898Z,0.00
2023-05-17T00:04:59.068Z,0.00
2023-05-17T00:05:58.968Z,0.00
2023-05-17T00:06:58.913Z,0.00
2023-05-17T00:07:58.866Z,0.00
2023-05-17T00:08:58.857Z,0.00
2023-05-17T00:09:58.858Z,0.00
2023-05-17T00:10:58.848Z,0.00
2023-05-17T00:11:58.874Z,0.00
2023-05-17T00:12:58.826Z,0.00
2023-05-17T00:13:58.828Z,0.00
2023-05-17T00:14:58.821Z,0.00
2023-05-17T00:15:58.843Z,0.00
2023-05-17T00:16:58.911Z,0.00
2023-05-17T00:17:58.842Z,0.00
2023-05-17T00:18:58.917Z,0.00
2023-05-17T00:19:58.785Z,0.00
2023-05-17T00:20:58.800Z,0.00
2023-05-17T00:21:58.825Z,0.00
2023-05-17T00:22:58.751Z,0.00
2023-05-17T00:23:58.747Z,0.00
2023-05-17T00:24:58.750Z,0.00
2023-05-17T00:25:58.760Z,0.00
2023-05-17T00:26:58.722Z,0.00
2023-05-17T00:27:58.752Z,0.00
2023-05-17T00:28:58.714Z,0.00
2023-05-17T00:29:58.729Z,0.00
2023-05-17T00:30:58.723Z,0.00
2023-05-17T00:31:58.691Z,0.00
2023-05-17T00:32:58.722Z,0.00
2023-05-17T00:33:58.672Z,0.00
2023-05-17T00:34:58.734Z,0.00
2023-05-17T00:35:58.663Z,0.00
2023-05-17T00:36:58.655Z,0.00
2023-05-17T00:37:58.716Z,0.00
2023-05-17T00:38:58.631Z,0.00
2023-05-17T00:39:58.649Z,0.00
2023-05-17T00:40:58.628Z,0.00
2023-05-17T00:41:58.614Z,0.00
2023-05-17T00:42:58.611Z,0.00
2023-05-17T00:43:58.624Z,0.00
2023-05-17T00:44:58.615Z,0.00
2023-05-17T00:45:58.597Z,0.00
2023-05-17T00:46:58.585Z,0.00
2023-05-17T00:47:58.647Z,0.00
2023-05-17T00:48:58.586Z,0.00
2023-05-17T00:49:58.561Z,0.00
2023-05-17T00:50:58.577Z,0.00
2023-05-17T00:51:58.528Z,0.00
2023-05-17T00:52:58.528Z,0.00
2023-05-17T00:53:58.595Z,0.00
2023-05-17T00:54:58.514Z,0.00
2023-05-17T00:55:58.523Z,0.00
2023-05-17T00:56:58.496Z,0.00
2023-05-17T00:57:58.517Z,0.00
2023-05-17T00:58:58.510Z,0.00
2023-05-17T00:59:58.474Z,0.00
2023-05-17T01:00:58.459Z,0.00
2023-05-17T01:01:58.459Z,0.00
2023-05-17T01:02:58.561Z,0.00
2023-05-17T01:03:58.557Z,0.00
2023-05-17T01:04:58.511Z,0.00
2023-05-17T01:05:58.437Z,0.00
2023-05-17T01:06:58.484Z,0.00
2023-05-17T01:07:58.435Z,0.00
2023-05-17T01:08:58.408Z,0.00
2023-05-17T01:09:58.504Z,0.00
2023-05-17T01:10:58.390Z,0.00
2023-05-17T01:11:58.405Z,0.00
2023-05-17T01:12:58.373Z,0.00
2023-05-17T01:13:58.368Z,0.00
2023-05-17T01:14:58.364Z,0.00
2023-05-17T01:15:58.361Z,0.00
2023-05-17T01:16:58.367Z,0.00
2023-05-17T01:17:58.399Z,0.00
2023-05-17T01:18:58.475Z,0.00
2023-05-17T01:19:58.508Z,0.00
2023-05-17T01:20:58.308Z,0.00
2023-05-17T01:21:58.359Z,0.00
2023-05-17T01:22:58.292Z,0.00
2023-05-17T01:23:58.287Z,0.00
2023-05-17T01:24:58.281Z,0.00
2023-05-17T01:25:58.369Z,0.00
2023-05-17T01:26:58.285Z,0.00
2023-05-17T01:27:58.262Z,0.00
2023-05-17T01:28:58.251Z,0.00
2023-05-17T01:29:58.261Z,0.00
2023-05-17T01:30:58.257Z,0.00
2023-05-17T01:31:58.281Z,0.00
2023-05-17T01:32:58.375Z,0.00
2023-05-17T01:33:58.299Z,0.00
2023-05-17T01:34:58.212Z,0.00
2023-05-17T01:35:58.217Z,0.00
2023-05-17T01:36:58.202Z,0.00
2023-05-17T01:37:58.191Z,0.00
2023-05-17T01:38:58.188Z,0.00
2023-05-17T01:39:58.189Z,0.00
2023-05-17T01:40:58.210Z,0.00
2023-05-17T01:41:58.198Z,0.00
2023-05-17T01:42:58.170Z,0.00
2023-05-17T01:43:58.150Z,0.00
2023-05-17T01:44:58.157Z,0.00
2023-05-17T01:45:58.141Z,0.00
2023-05-17T01:46:58.110Z,0.00
2023-05-17T01:47:58.213Z,0.00
2023-05-17T01:48:58.108Z,0.00
2023-05-17T01:49:58.113Z,0.00
2023-05-17T01:50:58.221Z,0.00
2023-05-17T01:51:58.081Z,0.00
2023-05-17T01:52:58.054Z,0.00
2023-05-17T01:53:59.083Z,0.00
2023-05-17T01:54:58.074Z,0.00
2023-05-17T01:55:59.077Z,0.00
2023-05-17T01:56:58.034Z,0.00
2023-05-17T01:57:58.097Z,0.00
2023-05-17T01:58:58.051Z,0.00
2023-05-17T01:59:58.004Z,0.00
2023-05-17T02:00:58.009Z,0.00
2023-05-17T02:01:57.992Z,0.00
2023-05-17T02:02:58.049Z,0.00
2023-05-17T02:03:58.007Z,0.00
2023-05-17T02:04:57.986Z,0.00
2023-05-17T02:05:57.961Z,0.00
2023-05-17T02:06:57.959Z,0.00
2023-05-17T02:07:57.999Z,0.00
2023-05-17T02:08:57.974Z,0.00
2023-05-17T02:09:57.953Z,0.00
2023-05-17T02:10:57.922Z,0.00
2023-05-17T02:11:57.928Z,0.00
2023-05-17T02:12:57.936Z,0.00
2023-05-17T02:13:57.960Z,0.00
2023-05-17T02:14:57.894Z,0.00
2023-05-17T02:15:57.887Z,0.00
2023-05-17T02:16:57.883Z,0.00
2023-05-17T02:17:58.004Z,0.00
2023-05-17T02:18:57.946Z,0.00
2023-05-17T02:19:57.863Z,0.00
2023-05-17T02:20:57.849Z,0.00
2023-05-17T02:21:57.889Z,0.00
2023-05-17T02:22:57.860Z,0.00
2023-05-17T02:23:57.835Z,0.00
2023-05-17T02:24:57.820Z,0.00
2023-05-17T02:25:57.811Z,0.00
2023-05-17T02:26:57.873Z,0.00
2023-05-17T02:27:57.798Z,0.00
2023-05-17T02:28:57.788Z,0.00
2023-05-17T02:29:57.838Z,0.00
2023-05-17T02:30:57.768Z,0.00
2023-05-17T02:31:57.832Z,0.00
2023-05-17T02:32:57.881Z,0.00
2023-05-17T02:33:57.817Z,0.00
2023-05-17T02:34:57.743Z,0.00
2023-05-17T02:35:57.764Z,0.00
2023-05-17T02:36:57.754Z,0.00
2023-05-17T02:37:57.790Z,0.00
2023-05-17T02:38:57.709Z,0.00
2023-05-17T02:39:57.711Z,0.00
2023-05-17T02:40:57.731Z,0.00
2023-05-17T02:41:57.688Z,0.00
2023-05-17T02:42:57.774Z,0.00
2023-05-17T02:43:57.683Z,0.00
2023-05-17T02:44:57.667Z,0.00
2023-05-17T02:45:57.731Z,0.00
2023-05-17T02:46:58.704Z,0.00
2023-05-17T02:47:57.663Z,0.00
2023-05-17T02:48:57.645Z,0.00
2023-05-17T02:49:57.670Z,0.00
2023-05-17T02:50:57.647Z,0.00
2023-05-17T02:51:57.612Z,0.00
2023-05-17T02:52:57.622Z,0.00
2023-05-17T02:53:57.602Z,0.00
2023-05-17T02:54:57.638Z,0.00
2023-05-17T02:55:57.587Z,0.00
2023-05-17T02:56:57.569Z,0.00
2023-05-17T02:57:57.563Z,0.00
2023-05-17T02:58:57.592Z,0.00
2023-05-17T02:59:57.566Z,0.00
2023-05-17T03:00:57.535Z,0.00
2023-05-17T03:01:57.584Z,0.00
2023-05-17T03:02:57.587Z,0.00
2023-05-17T03:03:57.650Z,0.00
2023-05-17T03:04:57.536Z,0.00
2023-05-17T03:05:57.501Z,4.00
2023-05-17T03:06:57.499Z,0.00
2023-05-17T03:07:57.516Z,0.00
2023-05-17T03:08:57.509Z,4.00
2023-05-17T03:09:57.496Z,0.00
2023-05-17T03:10:57.484Z,4.00
2023-05-17T03:11:57.457Z,4.00
2023-05-17T03:12:57.446Z,4.00
2023-05-17T03:13:57.482Z,4.00
2023-05-17T03:14:57.435Z,4.00
2023-05-17T03:15:57.432Z,4.00
2023-05-17T03:16:57.416Z,4.00
2023-05-17T03:17:57.864Z,4.00
2023-05-17T03:18:57.666Z,4.00
2023-05-17T03:19:57.417Z,8.00
2023-05-17T03:20:57.390Z,4.00
2023-05-17T03:21:57.388Z,8.00
2023-05-17T03:22:57.370Z,8.00
2023-05-17T03:23:57.396Z,8.00
2023-05-17T03:24:57.353Z,12.00
2023-05-17T03:25:57.343Z,12.00
2023-05-17T03:26:57.343Z,12.00
2023-05-17T03:27:57.357Z,8.00
2023-05-17T03:28:57.361Z,12.00
2023-05-17T03:29:57.315Z,12.00
2023-05-17T03:30:57.331Z,16.00
2023-05-17T03:31:57.312Z,16.00
2023-05-17T03:32:57.371Z,16.00
2023-05-17T03:33:57.330Z,24.00
2023-05-17T03:34:57.290Z,24.00
2023-05-17T03:35:57.281Z,28.00
2023-05-17T03:36:57.264Z,28.00
2023-05-17T03:37:57.280Z,32.00
2023-05-17T03:38:57.248Z,36.00
2023-05-17T03:39:57.249Z,40.00
2023-05-17T03:40:57.232Z,44.00
2023-05-17T03:41:57.252Z,52.00
2023-05-17T03:42:57.240Z,52.00
2023-05-17T03:43:57.218Z,60.00
2023-05-17T03:44:57.199Z,68.00
2023-05-17T03:45:57.190Z,80.00
2023-05-17T03:46:57.215Z,84.00
2023-05-17T03:47:57.188Z,88.00
2023-05-17T03:48:57.227Z,92.00
2023-05-17T03:49:57.404Z,92.00
2023-05-17T03:50:57.154Z,96.00
2023-05-17T03:51:57.173Z,100.00
2023-05-17T03:52:57.154Z,100.00
2023-05-17T03:53:57.139Z,100.00
2023-05-17T03:54:57.148Z,100.00
2023-05-17T03:55:57.136Z,100.00
2023-05-17T03:56:57.134Z,96.00
2023-05-17T03:57:57.095Z,96.00
2023-05-17T03:58:57.101Z,96.00
2023-05-17T03:59:57.083Z,100.00
2023-05-17T04:00:57.097Z,100.00
2023-05-17T04:01:57.066Z,108.00
2023-05-17T04:02:57.134Z,104.00
2023-05-17T04:03:57.093Z,104.00
2023-05-17T04:04:57.078Z,108.00
2023-05-17T04:05:57.115Z,112.00
2023-05-17T04:06:57.024Z,116.00
2023-05-17T04:07:57.025Z,116.00
2023-05-17T04:08:57.018Z,116.00
2023-05-17T04:09:57.014Z,120.00
2023-05-17T04:10:57.038Z,124.00
2023-05-17T04:11:56.999Z,124.00
2023-05-17T04:12:56.986Z,128.00
2023-05-17T04:13:56.975Z,136.00
2023-05-17T04:14:56.964Z,144.00
2023-05-17T04:15:57.008Z,148.00
2023-05-17T04:16:56.955Z,148.00
2023-05-17T04:17:57.028Z,144.00
2023-05-17T04:18:56.998Z,132.00
2023-05-17T04:19:56.997Z,128.00
2023-05-17T04:20:56.956Z,124.00
2023-05-17T04:21:56.967Z,120.00
2023-05-17T04:22:56.923Z,112.00
2023-05-17T04:23:56.909Z,112.00
2023-05-17T04:24:56.933Z,112.00
2023-05-17T04:25:56.883Z,108.00
2023-05-17T04:26:56.894Z,108.00
2023-05-17T04:27:56.868Z,120.00
2023-05-17T04:28:56.859Z,124.00
2023-05-17T04:29:56.924Z,132.00
2023-05-17T04:30:56.845Z,144.00
2023-05-17T04:31:56.827Z,152.00
2023-05-17T04:32:57.858Z,164.00
2023-05-17T04:33:56.888Z,176.00
2023-05-17T04:34:56.850Z,196.00
2023-05-17T04:35:56.898Z,224.00
2023-05-17T04:36:56.806Z,244.00
2023-05-17T04:37:56.964Z,252.00
2023-05-17T04:38:56.807Z,264.00
2023-05-17T04:39:56.783Z,280.00
2023-05-17T04:40:56.770Z,296.00
2023-05-17T04:41:56.771Z,308.00
2023-05-17T04:42:56.755Z,308.00
2023-05-17T04:43:56.774Z,292.00
2023-05-17T04:44:56.741Z,296.00
2023-05-17T04:45:56.807Z,300.00
2023-05-17T04:46:56.760Z,300.00
2023-05-17T04:47:56.795Z,304.00
2023-05-17T04:48:56.825Z,308.00
2023-05-17T04:49:56.702Z,304.00
2023-05-17T04:50:56.718Z,304.00
2023-05-17T04:51:56.687Z,320.00
2023-05-17T04:52:56.684Z,340.00
2023-05-17T04:53:56.747Z,364.00
2023-05-17T04:54:56.663Z,372.00
2023-05-17T04:55:56.684Z,392.00
2023-05-17T04:56:56.650Z,388.00
2023-05-17T04:57:56.669Z,384.00
2023-05-17T04:58:56.633Z,388.00
2023-05-17T04:59:56.667Z,392.00
2023-05-17T05:00:56.638Z,380.00
2023-05-17T05:01:56.608Z,432.00
2023-05-17T05:02:56.628Z,384.00
2023-05-17T05:03:56.692Z,384.00
2023-05-17T05:04:56.636Z,384.00
2023-05-17T05:05:56.584Z,424.00
2023-05-17T05:06:56.578Z,440.00
2023-05-17T05:07:56.574Z,428.00
2023-05-17T05:08:56.556Z,464.00
2023-05-17T05:09:56.568Z,496.00
2023-05-17T05:10:56.539Z,496.00
2023-05-17T05:11:57.123Z,456.00
2023-05-17T05:12:56.528Z,476.00
2023-05-17T05:13:56.525Z,504.00
2023-05-17T05:14:56.529Z,552.00
2023-05-17T05:15:56.495Z,672.00
2023-05-17T05:16:56.495Z,728.00
2023-05-17T05:17:56.534Z,824.00
2023-05-17T05:18:56.611Z,968.00
2023-05-17T05:19:56.527Z,1044.00
2023-05-17T05:20:56.488Z,1100.00
2023-05-17T05:21:56.469Z,1160.00
2023-05-17T05:22:56.444Z,1256.00
2023-05-17T05:23:56.455Z,1220.00
2023-05-17T05:24:56.465Z,1152.00
2023-05-17T05:25:56.417Z,956.00
2023-05-17T05:26:56.419Z,704.00
2023-05-17T05:27:56.408Z,532.00
2023-05-17T05:28:56.399Z,420.00
2023-05-17T05:29:56.416Z,344.00
2023-05-17T05:30:56.386Z,308.00
2023-05-17T05:31:56.410Z,244.00
2023-05-17T05:32:56.445Z,216.00
2023-05-17T05:33:56.431Z,240.00
2023-05-17T05:34:56.388Z,280.00
2023-05-17T05:35:56.341Z,316.00
2023-05-17T05:36:56.485Z,368.00
2023-05-17T05:37:56.341Z,440.00
2023-05-17T05:38:56.364Z,552.00
2023-05-17T05:39:56.344Z,572.00
2023-05-17T05:40:56.312Z,680.00
2023-05-17T05:41:56.354Z,828.00
2023-05-17T05:42:56.307Z,944.00
2023-05-17T05:43:56.310Z,1004.00
2023-05-17T05:44:56.274Z,960.00
2023-05-17T05:45:57.282Z,872.00
2023-05-17T05:46:56.310Z,912.00
2023-05-17T05:47:56.308Z,928.00
2023-05-17T05:48:56.291Z,920.00
2023-05-17T05:49:56.249Z,908.00
2023-05-17T05:50:56.233Z,924.00
2023-05-17T05:51:56.224Z,940.00
2023-05-17T05:53:03.820Z,964.00
2023-05-17T05:53:58.238Z,916.00
2023-05-17T05:54:56.202Z,940.00
2023-05-17T05:55:56.217Z,872.00
2023-05-17T05:56:56.191Z,908.00
2023-05-17T05:57:56.298Z,836.00
2023-05-17T05:58:56.201Z,716.00
2023-05-17T05:59:56.169Z,604.00
2023-05-17T06:00:56.160Z,540.00
2023-05-17T06:01:56.150Z,552.00
2023-05-17T06:02:56.311Z,548.00
2023-05-17T06:03:56.140Z,596.00
2023-05-17T06:04:56.137Z,668.00
2023-05-17T06:05:56.193Z,756.00
2023-05-17T06:06:56.154Z,928.00
2023-05-17T06:07:57.011Z,1180.00
2023-05-17T06:08:58.189Z,1448.00
2023-05-17T06:09:56.091Z,1564.00
2023-05-17T06:10:56.092Z,1728.00
2023-05-17T06:11:56.077Z,1664.00
2023-05-17T06:12:56.106Z,1756.00
2023-05-17T06:13:56.058Z,1880.00
2023-05-17T06:14:57.057Z,1880.00
2023-05-17T06:15:56.073Z,1868.00
2023-05-17T06:16:56.075Z,1672.00
2023-05-17T06:17:56.119Z,1764.00
2023-05-17T06:18:56.093Z,1856.00
2023-05-17T06:19:56.034Z,1816.00
2023-05-17T06:20:56.013Z,1804.00
2023-05-17T06:21:56.027Z,1780.00
2023-05-17T06:22:55.997Z,1872.00
2023-05-17T06:23:56.002Z,1820.00
2023-05-17T06:24:55.978Z,2204.00
2023-05-17T06:25:55.970Z,2432.00
2023-05-17T06:26:55.993Z,2736.00
2023-05-17T06:27:55.957Z,2556.00
2023-05-17T06:28:55.964Z,2392.00
2023-05-17T06:29:55.949Z,2804.00
2023-05-17T06:30:55.929Z,2188.00
2023-05-17T06:31:55.953Z,2244.00
2023-05-17T06:32:55.993Z,2244.00
2023-05-17T06:33:55.925Z,2308.00
2023-05-17T06:34:56.678Z,2752.00
2023-05-17T06:35:57.528Z,2576.00
2023-05-17T06:36:56.910Z,2764.00
2023-05-17T06:37:55.911Z,3048.00
2023-05-17T06:38:55.872Z,3708.00
2023-05-17T06:40:00.026Z,3220.00
2023-05-17T06:40:58.017Z,3104.00
2023-05-17T06:41:55.849Z,2364.00
2023-05-17T06:42:55.838Z,2084.00
2023-05-17T06:43:55.829Z,3048.00
2023-05-17T06:44:55.835Z,2192.00
2023-05-17T06:45:56.348Z,1944.00
2023-05-17T06:46:55.803Z,2012.00
2023-05-17T06:47:55.882Z,1932.00
2023-05-17T06:48:56.724Z,1968.00
2023-05-17T06:49:55.806Z,2004.00
2023-05-17T06:50:55.827Z,2236.00
2023-05-17T06:51:55.766Z,2228.00
2023-05-17T06:52:55.776Z,2788.00
2023-05-17T06:53:55.764Z,2488.00
2023-05-17T06:54:55.773Z,2176.00
2023-05-17T06:55:55.740Z,2356.00
2023-05-17T06:56:55.731Z,2448.00
2023-05-17T06:57:55.730Z,2532.00
2023-05-17T06:58:55.717Z,2400.00
2023-05-17T06:59:55.741Z,2204.00
2023-05-17T07:00:55.707Z,2168.00
2023-05-17T07:01:55.814Z,2284.00
2023-05-17T07:02:56.639Z,2020.00
2023-05-17T07:03:55.943Z,1924.00
2023-05-17T07:04:55.722Z,1828.00
2023-05-17T07:05:55.673Z,1780.00
2023-05-17T07:06:55.652Z,1692.00
2023-05-17T07:07:55.650Z,1600.00
2023-05-17T07:08:55.663Z,1576.00
2023-05-17T07:09:55.647Z,1608.00
2023-05-17T07:10:55.619Z,1648.00
2023-05-17T07:11:55.618Z,1532.00
2023-05-17T07:12:55.651Z,1456.00
2023-05-17T07:13:55.628Z,1424.00
2023-05-17T07:14:55.598Z,1404.00
2023-05-17T07:15:55.581Z,1348.00
2023-05-17T07:16:56.577Z,1344.00
2023-05-17T07:17:55.739Z,1280.00
2023-05-17T07:18:55.616Z,1220.00
2023-05-17T07:19:55.656Z,1168.00
2023-05-17T07:20:55.564Z,1120.00
2023-05-17T07:21:55.552Z,1084.00
2023-05-17T07:22:55.557Z,1072.00
2023-05-17T07:23:55.553Z,1068.00
2023-05-17T07:24:55.514Z,1076.00
2023-05-17T07:25:55.555Z,1112.00
2023-05-17T07:26:55.496Z,1172.00
2023-05-17T07:27:56.534Z,1228.00
2023-05-17T07:28:55.498Z,1264.00
2023-05-17T07:29:55.484Z,1300.00
2023-05-17T07:30:55.471Z,1396.00
2023-05-17T07:31:55.471Z,1496.00
2023-05-17T07:32:55.547Z,1604.00
2023-05-17T07:33:55.492Z,1700.00
2023-05-17T07:34:55.455Z,1852.00
2023-05-17T07:35:55.464Z,1972.00
2023-05-17T07:36:55.426Z,2240.00
2023-05-17T07:37:55.449Z,3248.00
2023-05-17T07:38:55.419Z,3532.00
2023-05-17T07:39:55.418Z,2740.00
2023-05-17T07:40:55.398Z,3468.00
2023-05-17T07:41:55.720Z,2520.00
2023-05-17T07:42:55.405Z,3400.00
2023-05-17T07:43:55.384Z,3428.00
2023-05-17T07:44:55.373Z,3216.00
2023-05-17T07:45:55.355Z,3076.00
2023-05-17T07:46:55.446Z,2504.00
2023-05-17T07:47:55.454Z,1728.00
2023-05-17T07:48:58.134Z,1672.00
2023-05-17T07:49:55.486Z,1636.00
2023-05-17T07:50:55.314Z,1556.00
2023-05-17T07:51:55.334Z,1528.00
2023-05-17T07:52:55.305Z,1468.00
2023-05-17T07:53:55.318Z,1400.00
2023-05-17T07:54:55.536Z,1324.00
2023-05-17T07:55:55.303Z,1268.00
2023-05-17T07:56:55.314Z,1220.00
2023-05-17T07:57:55.279Z,1136.00
2023-05-17T07:58:55.294Z,1116.00
2023-05-17T07:59:55.248Z,1128.00
2023-05-17T08:00:55.281Z,1160.00
2023-05-17T08:01:55.253Z,1196.00
2023-05-17T08:02:55.264Z,1256.00
2023-05-17T08:03:55.227Z,1308.00
2023-05-17T08:04:55.246Z,1348.00
2023-05-17T08:05:55.267Z,1424.00
2023-05-17T08:06:56.205Z,1520.00
2023-05-17T08:07:55.200Z,1576.00
2023-05-17T08:08:55.192Z,1552.00
2023-05-17T08:09:55.203Z,1552.00
2023-05-17T08:10:55.200Z,1596.00
2023-05-17T08:11:55.166Z,2132.00
2023-05-17T08:12:55.156Z,2740.00
2023-05-17T08:13:55.149Z,2764.00
2023-05-17T08:14:55.167Z,2868.00
2023-05-17T08:16:05.193Z,2992.00
2023-05-17T08:16:57.129Z,3104.00
2023-05-17T08:17:55.207Z,2924.00
2023-05-17T08:18:55.199Z,3188.00
2023-05-17T08:19:55.157Z,3280.00
2023-05-17T08:20:55.118Z,3312.00
2023-05-17T08:21:55.089Z,3352.00
2023-05-17T08:22:55.229Z,3404.00
2023-05-17T08:23:55.101Z,3488.00
2023-05-17T08:24:56.570Z,3576.00
2023-05-17T08:25:55.056Z,3632.00
2023-05-17T08:26:55.055Z,3648.00
2023-05-17T08:27:55.052Z,3796.00
2023-05-17T08:28:55.099Z,3788.00
2023-05-17T08:29:55.027Z,3048.00
2023-05-17T08:30:55.029Z,2328.00
2023-05-17T08:31:55.555Z,2324.00
2023-05-17T08:32:55.120Z,2248.00
2023-05-17T08:33:55.039Z,2192.00
2023-05-17T08:34:54.997Z,2096.00
2023-05-17T08:35:55.964Z,2056.00
2023-05-17T08:36:55.001Z,2132.00
2023-05-17T08:37:54.995Z,2232.00
2023-05-17T08:38:54.982Z,2404.00
2023-05-17T08:39:54.959Z,2884.00
2023-05-17T08:40:54.945Z,3596.00
2023-05-17T08:41:54.930Z,3620.00
2023-05-17T08:42:54.955Z,2844.00
2023-05-17T08:43:54.938Z,2628.00
2023-05-17T08:44:54.934Z,2828.00
2023-05-17T08:45:54.906Z,2468.00
2023-05-17T08:46:54.899Z,2492.00
2023-05-17T08:47:54.980Z,2304.00
2023-05-17T08:48:54.985Z,2212.00
2023-05-17T08:49:54.871Z,2168.00
2023-05-17T08:50:54.877Z,2152.00
2023-05-17T08:51:54.855Z,2908.00
2023-05-17T08:52:54.932Z,2160.00
2023-05-17T08:53:55.011Z,2108.00
2023-05-17T08:54:55.825Z,2088.00
2023-05-17T08:55:54.826Z,2120.00
2023-05-17T08:56:54.812Z,2024.00
2023-05-17T08:57:54.839Z,1952.00
2023-05-17T08:58:57.204Z,1968.00
2023-05-17T08:59:55.792Z,3376.00
2023-05-17T09:00:54.788Z,3356.00
2023-05-17T09:01:54.820Z,3348.00
2023-05-17T09:02:54.855Z,3116.00
2023-05-17T09:03:54.928Z,3528.00
2023-05-17T09:04:54.846Z,3700.00
2023-05-17T09:05:54.826Z,3860.00
2023-05-17T09:06:54.775Z,3964.00
2023-05-17T09:07:54.729Z,3940.00
2023-05-17T09:08:54.919Z,2672.00
2023-05-17T09:09:54.727Z,2236.00
2023-05-17T09:10:54.712Z,2196.00
2023-05-17T09:11:54.758Z,2268.00
2023-05-17T09:12:54.689Z,2360.00
2023-05-17T09:13:54.685Z,2424.00
2023-05-17T09:14:54.681Z,2424.00
2023-05-17T09:15:54.672Z,2568.00
2023-05-17T09:16:54.689Z,2472.00
2023-05-17T09:17:54.795Z,3504.00
2023-05-17T09:18:57.243Z,3836.00
2023-05-17T09:19:54.785Z,2560.00
2023-05-17T09:20:54.643Z,2508.00
2023-05-17T09:21:54.655Z,2452.00
2023-05-17T09:22:54.621Z,2416.00
2023-05-17T09:24:05.600Z,2384.00
2023-05-17T09:24:56.608Z,2304.00
2023-05-17T09:25:54.628Z,2260.00
2023-05-17T09:26:54.689Z,2240.00
2023-05-17T09:27:54.581Z,2204.00
2023-05-17T09:28:54.574Z,2104.00
2023-05-17T09:29:54.573Z,2296.00
2023-05-17T09:30:54.591Z,3436.00
2023-05-17T09:31:54.558Z,3276.00
2023-05-17T09:32:54.555Z,3404.00
2023-05-17T09:33:54.582Z,3444.00
2023-05-17T09:34:54.532Z,3436.00
2023-05-17T09:35:54.552Z,3484.00
2023-05-17T09:36:54.524Z,2928.00
2023-05-17T09:37:54.513Z,3532.00
2023-05-17T09:38:54.506Z,3680.00
2023-05-17T09:39:54.527Z,3752.00
2023-05-17T09:40:54.515Z,2972.00
2023-05-17T09:41:54.481Z,3968.00
2023-05-17T09:42:54.480Z,4068.00
2023-05-17T09:43:54.462Z,2680.00
2023-05-17T09:44:54.522Z,2724.00
2023-05-17T09:45:54.488Z,2820.00
2023-05-17T09:46:54.451Z,2492.00
2023-05-17T09:47:54.562Z,2368.00
2023-05-17T09:48:54.545Z,2272.00
2023-05-17T09:49:54.462Z,2172.00
2023-05-17T09:50:54.418Z,2160.00
2023-05-17T09:51:54.408Z,2192.00
2023-05-17T09:52:54.416Z,3824.00
2023-05-17T09:53:54.397Z,3772.00
2023-05-17T09:54:54.426Z,3796.00
2023-05-17T09:55:54.384Z,3776.00
2023-05-17T09:56:54.371Z,3816.00
2023-05-17T09:57:54.357Z,3636.00
2023-05-17T09:58:54.355Z,3964.00
2023-05-17T09:59:54.376Z,2464.00
2023-05-17T10:00:54.354Z,2656.00
2023-05-17T10:01:54.379Z,3956.00
2023-05-17T10:02:54.447Z,3836.00
2023-05-17T10:03:54.386Z,3476.00
2023-05-17T10:04:54.332Z,2372.00
2023-05-17T10:05:54.313Z,2368.00
2023-05-17T10:06:54.291Z,2416.00
2023-05-17T10:07:54.286Z,2496.00
2023-05-17T10:08:54.708Z,3344.00
2023-05-17T10:09:54.273Z,2520.00
2023-05-17T10:10:54.257Z,4080.00
2023-05-17T10:11:54.255Z,2528.00
2023-05-17T10:12:54.253Z,2676.00
2023-05-17T10:13:54.271Z,3632.00
2023-05-17T10:14:54.319Z,4348.00
2023-05-17T10:15:55.234Z,2624.00
2023-05-17T10:16:54.244Z,2588.00
2023-05-17T10:17:54.315Z,2392.00
2023-05-17T10:18:54.279Z,2336.00
2023-05-17T10:19:54.322Z,2452.00
2023-05-17T10:20:54.194Z,2356.00
2023-05-17T10:21:54.177Z,2276.00
2023-05-17T10:22:54.198Z,2404.00
2023-05-17T10:23:54.180Z,2220.00
2023-05-17T10:24:54.214Z,2212.00
2023-05-17T10:25:54.149Z,2232.00
2023-05-17T10:26:54.157Z,2304.00
2023-05-17T10:27:54.166Z,2360.00
2023-05-17T10:28:54.124Z,2416.00
2023-05-17T10:29:54.131Z,2464.00
2023-05-17T10:30:54.110Z,2740.00
2023-05-17T10:31:54.099Z,3764.00
2023-05-17T10:32:54.243Z,3712.00
2023-05-17T10:33:54.192Z,3884.00
2023-05-17T10:35:05.892Z,3776.00
2023-05-17T10:35:56.079Z,3720.00
2023-05-17T10:36:54.093Z,2416.00
2023-05-17T10:37:54.085Z,2368.00
2023-05-17T10:38:54.053Z,2144.00
2023-05-17T10:39:54.038Z,2204.00
2023-05-17T10:40:54.041Z,3660.00
2023-05-17T10:41:57.986Z,3584.00
2023-05-17T10:42:55.023Z,3560.00
2023-05-17T10:43:54.007Z,3524.00
2023-05-17T10:44:54.007Z,3532.00
2023-05-17T10:45:54.053Z,3520.00
2023-05-17T10:46:54.005Z,3476.00
2023-05-17T10:47:54.006Z,2548.00
2023-05-17T10:48:54.006Z,1776.00
2023-05-17T10:49:53.962Z,1684.00
2023-05-17T10:51:00.973Z,1716.00
2023-05-17T10:51:55.979Z,3252.00
2023-05-17T10:52:53.939Z,3216.00
2023-05-17T10:53:53.928Z,3236.00
2023-05-17T10:55:27.868Z,3320.00
2023-05-17T10:55:53.938Z,3304.00
2023-05-17T10:56:53.933Z,3296.00
2023-05-17T10:57:53.899Z,3316.00
2023-05-17T10:58:53.888Z,3372.00
2023-05-17T10:59:53.884Z,2180.00
2023-05-17T11:00:55.299Z,2076.00
2023-05-17T11:01:54.869Z,2900.00
2023-05-17T11:02:53.910Z,3484.00
2023-05-17T11:03:53.853Z,3524.00
2023-05-17T11:04:53.911Z,3652.00
2023-05-17T11:05:54.268Z,3680.00
2023-05-17T11:06:54.002Z,3760.00
2023-05-17T11:07:53.810Z,3296.00
2023-05-17T11:08:53.818Z,2448.00
2023-05-17T11:09:53.812Z,3008.00
2023-05-17T11:10:53.828Z,2712.00
2023-05-17T11:11:53.792Z,3416.00
2023-05-17T11:12:53.830Z,2024.00
2023-05-17T11:13:53.789Z,1916.00
2023-05-17T11:14:53.809Z,1904.00
2023-05-17T11:15:53.824Z,1908.00
2023-05-17T11:16:55.036Z,1948.00
2023-05-17T11:17:53.828Z,2016.00
2023-05-17T11:18:53.814Z,2160.00
2023-05-17T11:19:53.806Z,2516.00
2023-05-17T11:20:53.851Z,2212.00
2023-05-17T11:21:53.722Z,3580.00
2023-05-17T11:22:53.711Z,3552.00
2023-05-17T11:23:53.694Z,3508.00
2023-05-17T11:24:53.717Z,1952.00
2023-05-17T11:25:54.954Z,1844.00
2023-05-17T11:26:54.680Z,1792.00
2023-05-17T11:27:53.666Z,2172.00
2023-05-17T11:28:53.672Z,3332.00
2023-05-17T11:29:53.682Z,3296.00
2023-05-17T11:30:53.847Z,3312.00
2023-05-17T11:31:53.642Z,3336.00
2023-05-17T11:32:53.697Z,3380.00
2023-05-17T11:33:53.680Z,3488.00
2023-05-17T11:34:53.647Z,1968.00
2023-05-17T11:35:53.618Z,2156.00
2023-05-17T11:36:53.608Z,2044.00
2023-05-17T11:37:53.609Z,2064.00
2023-05-17T11:39:01.404Z,2092.00
2023-05-17T11:39:56.536Z,2216.00
2023-05-17T11:40:53.581Z,3464.00
2023-05-17T11:41:53.578Z,2936.00
2023-05-17T11:42:53.564Z,2096.00
2023-05-17T11:43:53.591Z,3412.00
2023-05-17T11:44:53.575Z,3472.00
2023-05-17T11:45:53.885Z,3452.00
2023-05-17T11:46:53.536Z,3476.00
2023-05-17T11:47:53.630Z,3396.00
2023-05-17T11:48:53.925Z,1892.00
2023-05-17T11:49:55.680Z,1948.00
2023-05-17T11:50:54.528Z,1980.00
2023-05-17T11:51:53.525Z,3272.00
2023-05-17T11:52:53.517Z,3380.00
2023-05-17T11:53:53.621Z,3516.00
2023-05-17T11:54:53.474Z,3520.00
2023-05-17T11:55:53.468Z,3480.00
2023-05-17T11:56:53.458Z,3496.00
2023-05-17T11:57:53.470Z,3484.00
2023-05-17T11:58:53.439Z,3512.00
2023-05-17T11:59:53.430Z,1972.00
2023-05-17T12:00:53.487Z,2176.00
2023-05-17T12:01:53.440Z,1896.00
2023-05-17T12:02:53.465Z,1844.00
2023-05-17T12:03:53.397Z,1852.00
2023-05-17T12:04:53.431Z,1852.00
2023-05-17T12:05:54.293Z,1840.00
2023-05-17T12:06:53.655Z,1892.00
2023-05-17T12:07:53.395Z,1892.00
2023-05-17T12:08:53.393Z,1948.00
2023-05-17T12:09:53.351Z,1884.00
2023-05-17T12:10:53.387Z,2568.00
2023-05-17T12:11:53.372Z,3256.00
2023-05-17T12:12:53.369Z,1996.00
2023-05-17T12:13:53.328Z,1936.00
2023-05-17T12:14:53.330Z,3372.00
2023-05-17T12:15:53.341Z,2232.00
2023-05-17T12:16:53.334Z,2716.00
2023-05-17T12:17:53.515Z,2072.00
2023-05-17T12:18:53.405Z,2824.00
2023-05-17T12:19:53.337Z,3284.00
2023-05-17T12:20:53.279Z,3256.00
2023-05-17T12:21:53.411Z,3248.00
2023-05-17T12:22:53.250Z,3220.00
2023-05-17T12:23:53.239Z,3216.00
2023-05-17T12:24:54.163Z,3264.00
2023-05-17T12:25:53.231Z,3264.00
2023-05-17T12:26:53.246Z,3296.00
2023-05-17T12:27:53.214Z,3300.00
2023-05-17T12:28:53.256Z,3188.00
2023-05-17T12:29:53.193Z,2060.00
2023-05-17T12:30:53.253Z,1908.00